sensor_id;sensor_type;location;lat;lon;timestamp;P1;P2;P0
43479;PMS5003;29067;35.492;-97.520;2023-04-01T00:01:37;0;0;
43479;PMS5003;29067;35.492;-97.520;2023-04-01T00:04:06;1;0;
43479;PMS5003;29067;35.492;-97.520;2023-04-01T00:06:34;0;0;
43479;PMS5003;29067;35.492;-97.520;2023-04-01T00:09:02;0;0;
43479;PMS5003;29067;35.492;-97.520;2023-04-01T00:11:30;0;0;
43479;PMS5003;29067;35.492;-97.520;2023-04-01T00:13:59;1;0;
43479;PMS5003;29067;35.492;-97.520;2023-04-01T00:16:26;0;0;
43479;PMS5003;29067;35.492;-97.520;2023-04-01T00:18:55;0;0;
43479;PMS5003;29067;35.492;-97.520;2023-04-01T00:21:23;1;0;
43479;PMS5003;29067;35.492;-97.520;2023-04-01T00:23:52;0;0;
43479;PMS5003;29067;35.492;-97.520;2023-04-01T00:26:20;0;0;
43479;PMS5003;29067;35.492;-97.520;2023-04-01T00:28:49;0;0;
43479;PMS5003;29067;35.492;-97.520;2023-04-01T00:31:17;0;0;
43479;PMS5003;29067;35.492;-97.520;2023-04-01T00:33:46;0;0;
43479;PMS5003;29067;35.492;-97.520;2023-04-01T00:36:14;0;0;
43479;PMS5003;29067;35.492;-97.520;2023-04-01T00:38:44;0;0;
43479;PMS5003;29067;35.492;-97.520;2023-04-01T00:41:17;0;0;
43479;PMS5003;29067;35.492;-97.520;2023-04-01T00:43:47;1;0;
43479;PMS5003;29067;35.492;-97.520;2023-04-01T00:46:17;0;0;
43479;PMS5003;29067;35.492;-97.520;2023-04-01T00:48:47;0;0;
43479;PMS5003;29067;35.492;-97.520;2023-04-01T00:51:19;0;0;
43479;PMS5003;29067;35.492;-97.520;2023-04-01T00:53:51;0;0;
43479;PMS5003;29067;35.492;-97.520;2023-04-01T00:56:23;0;0;
43479;PMS5003;29067;35.492;-97.520;2023-04-01T00:58:54;0;0;
43479;PMS5003;29067;35.492;-97.520;2023-04-01T01:01:27;0;0;
43479;PMS5003;29067;35.492;-97.520;2023-04-01T01:03:56;0;0;
43479;PMS5003;29067;35.492;-97.520;2023-04-01T01:06:27;0;0;
43479;PMS5003;29067;35.492;-97.520;2023-04-01T01:09:08;0;0;
43479;PMS5003;29067;35.492;-97.520;2023-04-01T01:11:48;0;0;
43479;PMS5003;29067;35.492;-97.520;2023-04-01T01:14:26;0;0;
43479;PMS5003;29067;35.492;-97.520;2023-04-01T01:17:07;0;0;
43479;PMS5003;29067;35.492;-97.520;2023-04-01T01:19:47;0;0;
43479;PMS5003;29067;35.492;-97.520;2023-04-01T01:22:51;0;0;
43479;PMS5003;29067;35.492;-97.520;2023-04-01T01:25:34;1;0;
43479;PMS5003;29067;35.492;-97.520;2023-04-01T01:28:14;0;0;
43479;PMS5003;29067;35.492;-97.520;2023-04-01T01:30:57;0;0;
43479;PMS5003;29067;35.492;-97.520;2023-04-01T01:33:40;0;0;
43479;PMS5003;29067;35.492;-97.520;2023-04-01T01:36:17;0;0;
43479;PMS5003;29067;35.492;-97.520;2023-04-01T01:38:53;1;1;
43479;PMS5003;29067;35.492;-97.520;2023-04-01T01:41:23;0;0;
43479;PMS5003;29067;35.492;-97.520;2023-04-01T01:43:54;0;0;
43479;PMS5003;29067;35.492;-97.520;2023-04-01T01:46:26;0;0;
43479;PMS5003;29067;35.492;-97.520;2023-04-01T01:48:56;0;0;
43479;PMS5003;29067;35.492;-97.520;2023-04-01T01:51:27;0;0;
43479;PMS5003;29067;35.492;-97.520;2023-04-01T01:53:55;0;0;
43479;PMS5003;29067;35.492;-97.520;2023-04-01T01:56:23;1;0;
43479;PMS5003;29067;35.492;-97.520;2023-04-01T01:58:55;0;0;
43479;PMS5003;29067;35.492;-97.520;2023-04-01T02:01:27;0;0;
43479;PMS5003;29067;35.492;-97.520;2023-04-01T02:03:57;0;0;
43479;PMS5003;29067;35.492;-97.520;2023-04-01T02:06:27;1;0;
43479;PMS5003;29067;35.492;-97.520;2023-04-01T02:08:59;0;0;
43479;PMS5003;29067;35.492;-97.520;2023-04-01T02:11:31;0;0;
43479;PMS5003;29067;35.492;-97.520;2023-04-01T02:14:05;0;0;
43479;PMS5003;29067;35.492;-97.520;2023-04-01T02:16:38;0;0;
43479;PMS5003;29067;35.492;-97.520;2023-04-01T02:19:11;0;0;
43479;PMS5003;29067;35.492;-97.520;2023-04-01T02:21:42;0;0;
43479;PMS5003;29067;35.492;-97.520;2023-04-01T02:24:12;0;0;
43479;PMS5003;29067;35.492;-97.520;2023-04-01T02:26:41;0;0;
43479;PMS5003;29067;35.492;-97.520;2023-04-01T02:29:11;0;0;
43479;PMS5003;29067;35.492;-97.520;2023-04-01T02:31:40;0;0;
43479;PMS5003;29067;35.492;-97.520;2023-04-01T02:34:09;0;0;
43479;PMS5003;29067;35.492;-97.520;2023-04-01T02:36:38;0;0;
43479;PMS5003;29067;35.492;-97.520;2023-04-01T02:39:07;0;0;
43479;PMS5003;29067;35.492;-97.520;2023-04-01T02:41:39;0;0;
43479;PMS5003;29067;35.492;-97.520;2023-04-01T02:44:13;0;0;
43479;PMS5003;29067;35.492;-97.520;2023-04-01T02:46:41;1;0;
43479;PMS5003;29067;35.492;-97.520;2023-04-01T02:49:10;0;0;
43479;PMS5003;29067;35.492;-97.520;2023-04-01T02:51:38;1;1;
43479;PMS5003;29067;35.492;-97.520;2023-04-01T02:54:06;1;0;
43479;PMS5003;29067;35.492;-97.520;2023-04-01T02:56:34;1;1;
43479;PMS5003;29067;35.492;-97.520;2023-04-01T02:59:02;1;1;
43479;PMS5003;29067;35.492;-97.520;2023-04-01T03:01:30;0;0;
43479;PMS5003;29067;35.492;-97.520;2023-04-01T03:03:59;0;0;
43479;PMS5003;29067;35.492;-97.520;2023-04-01T03:06:26;0;0;
43479;PMS5003;29067;35.492;-97.520;2023-04-01T03:08:54;0;0;
43479;PMS5003;29067;35.492;-97.520;2023-04-01T03:11:23;1;0;
43479;PMS5003;29067;35.492;-97.520;2023-04-01T03:13:52;0;0;
43479;PMS5003;29067;35.492;-97.520;2023-04-01T03:16:20;0;0;
43479;PMS5003;29067;35.492;-97.520;2023-04-01T03:18:48;0;0;
43479;PMS5003;29067;35.492;-97.520;2023-04-01T03:21:17;1;1;
43479;PMS5003;29067;35.492;-97.520;2023-04-01T03:23:46;0;0;
43479;PMS5003;29067;35.492;-97.520;2023-04-01T03:26:15;1;0;
43479;PMS5003;29067;35.492;-97.520;2023-04-01T03:28:43;0;0;
43479;PMS5003;29067;35.492;-97.520;2023-04-01T03:31:11;0;0;
43479;PMS5003;29067;35.492;-97.520;2023-04-01T03:33:45;0;0;
43479;PMS5003;29067;35.492;-97.520;2023-04-01T03:36:13;2;1;
43479;PMS5003;29067;35.492;-97.520;2023-04-01T03:38:41;1;1;
43479;PMS5003;29067;35.492;-97.520;2023-04-01T03:41:11;2;0;
43479;PMS5003;29067;35.492;-97.520;2023-04-01T03:43:39;0;0;
43479;PMS5003;29067;35.492;-97.520;2023-04-01T03:46:09;0;0;
43479;PMS5003;29067;35.492;-97.520;2023-04-01T03:48:37;0;0;
43479;PMS5003;29067;35.492;-97.520;2023-04-01T03:51:06;1;0;
43479;PMS5003;29067;35.492;-97.520;2023-04-01T03:53:35;0;0;
43479;PMS5003;29067;35.492;-97.520;2023-04-01T03:56:03;2;1;
43479;PMS5003;29067;35.492;-97.520;2023-04-01T03:58:31;1;0;
43479;PMS5003;29067;35.492;-97.520;2023-04-01T04:01:00;1;1;
43479;PMS5003;29067;35.492;-97.520;2023-04-01T04:03:28;12;12;
43479;PMS5003;29067;35.492;-97.520;2023-04-01T04:05:56;13;13;
43479;PMS5003;29067;35.492;-97.520;2023-04-01T04:08:25;9;9;
43479;PMS5003;29067;35.492;-97.520;2023-04-01T04:10:56;10;9;
43479;PMS5003;29067;35.492;-97.520;2023-04-01T04:13:24;23;22;
43479;PMS5003;29067;35.492;-97.520;2023-04-01T04:15:57;22;22;
43479;PMS5003;29067;35.492;-97.520;2023-04-01T04:18:27;27;27;
43479;PMS5003;29067;35.492;-97.520;2023-04-01T04:20:54;31;30;
43479;PMS5003;29067;35.492;-97.520;2023-04-01T04:23:23;30;30;
43479;PMS5003;29067;35.492;-97.520;2023-04-01T04:25:55;32;31;
43479;PMS5003;29067;35.492;-97.520;2023-04-01T04:28:24;9;8;
43479;PMS5003;29067;35.492;-97.520;2023-04-01T04:30:53;35;35;
43479;PMS5003;29067;35.492;-97.520;2023-04-01T04:33:22;42;41;
43479;PMS5003;29067;35.492;-97.520;2023-04-01T04:35:51;11;9;
43479;PMS5003;29067;35.492;-97.520;2023-04-01T04:38:21;28;28;
43479;PMS5003;29067;35.492;-97.520;2023-04-01T04:40:49;27;27;
43479;PMS5003;29067;35.492;-97.520;2023-04-01T04:43:19;20;19;
43479;PMS5003;29067;35.492;-97.520;2023-04-01T04:45:47;20;20;
43479;PMS5003;29067;35.492;-97.520;2023-04-01T04:48:21;26;26;
43479;PMS5003;29067;35.492;-97.520;2023-04-01T04:50:49;26;26;
43479;PMS5003;29067;35.492;-97.520;2023-04-01T04:53:18;34;34;
43479;PMS5003;29067;35.492;-97.520;2023-04-01T04:55:47;45;45;
43479;PMS5003;29067;35.492;-97.520;2023-04-01T04:58:17;29;29;
43479;PMS5003;29067;35.492;-97.520;2023-04-01T05:00:45;45;45;
43479;PMS5003;29067;35.492;-97.520;2023-04-01T05:03:13;18;17;
43479;PMS5003;29067;35.492;-97.520;2023-04-01T05:05:47;1;1;
43479;PMS5003;29067;35.492;-97.520;2023-04-01T05:08:16;0;0;
43479;PMS5003;29067;35.492;-97.520;2023-04-01T05:10:44;0;0;
43479;PMS5003;29067;35.492;-97.520;2023-04-01T05:13:12;0;0;
43479;PMS5003;29067;35.492;-97.520;2023-04-01T05:15:40;1;0;
43479;PMS5003;29067;35.492;-97.520;2023-04-01T05:18:07;0;0;
43479;PMS5003;29067;35.492;-97.520;2023-04-01T05:20:35;1;1;
43479;PMS5003;29067;35.492;-97.520;2023-04-01T05:23:03;0;0;
43479;PMS5003;29067;35.492;-97.520;2023-04-01T05:25:31;1;0;
43479;PMS5003;29067;35.492;-97.520;2023-04-01T05:27:58;2;1;
43479;PMS5003;29067;35.492;-97.520;2023-04-01T05:30:26;0;0;
43479;PMS5003;29067;35.492;-97.520;2023-04-01T05:32:55;0;0;
43479;PMS5003;29067;35.492;-97.520;2023-04-01T05:35:28;1;0;
43479;PMS5003;29067;35.492;-97.520;2023-04-01T05:37:55;1;1;
43479;PMS5003;29067;35.492;-97.520;2023-04-01T05:40:23;2;1;
43479;PMS5003;29067;35.492;-97.520;2023-04-01T05:42:51;2;0;
43479;PMS5003;29067;35.492;-97.520;2023-04-01T05:45:19;0;0;
43479;PMS5003;29067;35.492;-97.520;2023-04-01T05:47:47;1;0;
43479;PMS5003;29067;35.492;-97.520;2023-04-01T05:50:17;0;0;
43479;PMS5003;29067;35.492;-97.520;2023-04-01T05:52:45;0;0;
43479;PMS5003;29067;35.492;-97.520;2023-04-01T05:55:13;0;0;
43479;PMS5003;29067;35.492;-97.520;2023-04-01T05:57:41;1;1;
43479;PMS5003;29067;35.492;-97.520;2023-04-01T06:00:11;1;0;
43479;PMS5003;29067;35.492;-97.520;2023-04-01T06:02:41;0;0;
43479;PMS5003;29067;35.492;-97.520;2023-04-01T06:05:12;1;0;
43479;PMS5003;29067;35.492;-97.520;2023-04-01T06:07:44;0;0;
43479;PMS5003;29067;35.492;-97.520;2023-04-01T06:10:14;4;0;
43479;PMS5003;29067;35.492;-97.520;2023-04-01T06:12:47;1;1;
43479;PMS5003;29067;35.492;-97.520;2023-04-01T06:15:25;0;0;
43479;PMS5003;29067;35.492;-97.520;2023-04-01T06:20:14;3;0;
43479;PMS5003;29067;35.492;-97.520;2023-04-01T06:22:56;1;1;
43479;PMS5003;29067;35.492;-97.520;2023-04-01T06:25:53;1;0;
43479;PMS5003;29067;35.492;-97.520;2023-04-01T06:29:05;1;0;
43479;PMS5003;29067;35.492;-97.520;2023-04-01T06:31:51;2;1;
43479;PMS5003;29067;35.492;-97.520;2023-04-01T06:34:33;2;1;
43479;PMS5003;29067;35.492;-97.520;2023-04-01T06:37:14;0;0;
43479;PMS5003;29067;35.492;-97.520;2023-04-01T06:40:04;1;0;
43479;PMS5003;29067;35.492;-97.520;2023-04-01T06:42:51;0;0;
43479;PMS5003;29067;35.492;-97.520;2023-04-01T06:45:33;6;2;
43479;PMS5003;29067;35.492;-97.520;2023-04-01T06:48:11;0;0;
43479;PMS5003;29067;35.492;-97.520;2023-04-01T06:50:58;2;1;
43479;PMS5003;29067;35.492;-97.520;2023-04-01T06:53:39;1;1;
43479;PMS5003;29067;35.492;-97.520;2023-04-01T06:56:16;0;0;
43479;PMS5003;29067;35.492;-97.520;2023-04-01T06:58:46;0;0;
43479;PMS5003;29067;35.492;-97.520;2023-04-01T07:01:19;1;0;
43479;PMS5003;29067;35.492;-97.520;2023-04-01T07:03:54;0;0;
43479;PMS5003;29067;35.492;-97.520;2023-04-01T07:06:26;1;1;
43479;PMS5003;29067;35.492;-97.520;2023-04-01T07:08:59;1;0;
43479;PMS5003;29067;35.492;-97.520;2023-04-01T07:11:34;1;1;
43479;PMS5003;29067;35.492;-97.520;2023-04-01T07:14:06;1;0;
43479;PMS5003;29067;35.492;-97.520;2023-04-01T07:16:44;0;0;
43479;PMS5003;29067;35.492;-97.520;2023-04-01T07:19:20;0;0;
43479;PMS5003;29067;35.492;-97.520;2023-04-01T07:21:55;2;1;
43479;PMS5003;29067;35.492;-97.520;2023-04-01T07:24:27;0;0;
43479;PMS5003;29067;35.492;-97.520;2023-04-01T07:27:01;1;1;
43479;PMS5003;29067;35.492;-97.520;2023-04-01T07:29:29;3;2;
43479;PMS5003;29067;35.492;-97.520;2023-04-01T07:32:04;0;0;
43479;PMS5003;29067;35.492;-97.520;2023-04-01T07:34:46;1;0;
43479;PMS5003;29067;35.492;-97.520;2023-04-01T07:37:23;1;0;
43479;PMS5003;29067;35.492;-97.520;2023-04-01T07:40:00;1;1;
43479;PMS5003;29067;35.492;-97.520;2023-04-01T07:42:42;1;1;
43479;PMS5003;29067;35.492;-97.520;2023-04-01T07:45:23;4;4;
43479;PMS5003;29067;35.492;-97.520;2023-04-01T07:48:00;6;5;
43479;PMS5003;29067;35.492;-97.520;2023-04-01T07:50:41;10;10;
43479;PMS5003;29067;35.492;-97.520;2023-04-01T07:53:21;22;21;
43479;PMS5003;29067;35.492;-97.520;2023-04-01T07:55:58;1;1;
43479;PMS5003;29067;35.492;-97.520;2023-04-01T07:58:34;0;0;
43479;PMS5003;29067;35.492;-97.520;2023-04-01T08:01:13;0;0;
43479;PMS5003;29067;35.492;-97.520;2023-04-01T08:03:52;2;2;
43479;PMS5003;29067;35.492;-97.520;2023-04-01T08:06:30;0;0;
43479;PMS5003;29067;35.492;-97.520;2023-04-01T08:09:05;1;1;
43479;PMS5003;29067;35.492;-97.520;2023-04-01T08:11:46;0;0;
43479;PMS5003;29067;35.492;-97.520;2023-04-01T08:14:29;1;0;
43479;PMS5003;29067;35.492;-97.520;2023-04-01T08:17:05;0;0;
43479;PMS5003;29067;35.492;-97.520;2023-04-01T08:19:45;1;1;
43479;PMS5003;29067;35.492;-97.520;2023-04-01T08:22:25;0;0;
43479;PMS5003;29067;35.492;-97.520;2023-04-01T08:24:56;2;1;
43479;PMS5003;29067;35.492;-97.520;2023-04-01T08:27:31;0;0;
43479;PMS5003;29067;35.492;-97.520;2023-04-01T08:30:06;0;0;
43479;PMS5003;29067;35.492;-97.520;2023-04-01T08:32:46;1;1;
43479;PMS5003;29067;35.492;-97.520;2023-04-01T08:35:21;1;1;
43479;PMS5003;29067;35.492;-97.520;2023-04-01T08:37:56;0;0;
43479;PMS5003;29067;35.492;-97.520;2023-04-01T08:41:07;1;1;
43479;PMS5003;29067;35.492;-97.520;2023-04-01T08:43:51;0;0;
43479;PMS5003;29067;35.492;-97.520;2023-04-01T08:46:46;1;1;
43479;PMS5003;29067;35.492;-97.520;2023-04-01T08:49:45;0;0;
43479;PMS5003;29067;35.492;-97.520;2023-04-01T08:52:49;1;1;
43479;PMS5003;29067;35.492;-97.520;2023-04-01T08:55:28;1;1;
43479;PMS5003;29067;35.492;-97.520;2023-04-01T08:58:10;0;0;
43479;PMS5003;29067;35.492;-97.520;2023-04-01T09:00:54;1;0;
43479;PMS5003;29067;35.492;-97.520;2023-04-01T09:03:54;1;1;
43479;PMS5003;29067;35.492;-97.520;2023-04-01T09:06:40;0;0;
43479;PMS5003;29067;35.492;-97.520;2023-04-01T09:10:25;0;0;
43479;PMS5003;29067;35.492;-97.520;2023-04-01T09:13:08;2;1;
43479;PMS5003;29067;35.492;-97.520;2023-04-01T09:16:20;1;1;
43479;PMS5003;29067;35.492;-97.520;2023-04-01T09:18:59;0;0;
43479;PMS5003;29067;35.492;-97.520;2023-04-01T09:21:51;1;1;
43479;PMS5003;29067;35.492;-97.520;2023-04-01T09:24:40;0;0;
43479;PMS5003;29067;35.492;-97.520;2023-04-01T09:27:24;1;1;
43479;PMS5003;29067;35.492;-97.520;2023-04-01T09:30:05;1;1;
43479;PMS5003;29067;35.492;-97.520;2023-04-01T09:32:52;0;0;
43479;PMS5003;29067;35.492;-97.520;2023-04-01T09:35:38;0;0;
43479;PMS5003;29067;35.492;-97.520;2023-04-01T09:38:19;2;1;
43479;PMS5003;29067;35.492;-97.520;2023-04-01T09:40:54;1;0;
43479;PMS5003;29067;35.492;-97.520;2023-04-01T09:43:25;1;0;
43479;PMS5003;29067;35.492;-97.520;2023-04-01T09:46:02;0;0;
43479;PMS5003;29067;35.492;-97.520;2023-04-01T09:48:43;0;0;
43479;PMS5003;29067;35.492;-97.520;2023-04-01T09:51:30;0;0;
43479;PMS5003;29067;35.492;-97.520;2023-04-01T09:54:12;0;0;
43479;PMS5003;29067;35.492;-97.520;2023-04-01T09:57:02;0;0;
43479;PMS5003;29067;35.492;-97.520;2023-04-01T10:02:08;0;0;
43479;PMS5003;29067;35.492;-97.520;2023-04-01T10:04:36;0;0;
43479;PMS5003;29067;35.492;-97.520;2023-04-01T10:07:32;1;0;
43479;PMS5003;29067;35.492;-97.520;2023-04-01T10:11:23;0;0;
43479;PMS5003;29067;35.492;-97.520;2023-04-01T10:14:24;1;0;
43479;PMS5003;29067;35.492;-97.520;2023-04-01T10:17:14;0;0;
43479;PMS5003;29067;35.492;-97.520;2023-04-01T10:20:02;0;0;
43479;PMS5003;29067;35.492;-97.520;2023-04-01T10:23:20;0;0;
43479;PMS5003;29067;35.492;-97.520;2023-04-01T10:26:38;5;5;
43479;PMS5003;29067;35.492;-97.520;2023-04-01T10:32:07;48;48;
43479;PMS5003;29067;35.492;-97.520;2023-04-01T10:34:37;50;48;
43479;PMS5003;29067;35.492;-97.520;2023-04-01T10:37:30;121;121;
43479;PMS5003;29067;35.492;-97.520;2023-04-01T10:40:35;36;36;
43479;PMS5003;29067;35.492;-97.520;2023-04-01T10:43:58;61;59;
43479;PMS5003;29067;35.492;-97.520;2023-04-01T10:46:56;148;148;
43479;PMS5003;29067;35.492;-97.520;2023-04-01T10:49:44;173;172;
43479;PMS5003;29067;35.492;-97.520;2023-04-01T10:52:44;192;192;
43479;PMS5003;29067;35.492;-97.520;2023-04-01T10:55:37;39;37;
43479;PMS5003;29067;35.492;-97.520;2023-04-01T10:59:58;7;3;
43479;PMS5003;29067;35.492;-97.520;2023-04-01T11:03:39;12;9;
43479;PMS5003;29067;35.492;-97.520;2023-04-01T11:07:46;8;4;
43479;PMS5003;29067;35.492;-97.520;2023-04-01T11:10:44;4;1;
43479;PMS5003;29067;35.492;-97.520;2023-04-01T11:14:17;17;13;
43479;PMS5003;29067;35.492;-97.520;2023-04-01T11:18:18;10;8;
43479;PMS5003;29067;35.492;-97.520;2023-04-01T11:21:17;10;8;
43479;PMS5003;29067;35.492;-97.520;2023-04-01T11:24:04;7;3;
43479;PMS5003;29067;35.492;-97.520;2023-04-01T11:26:50;13;10;
43479;PMS5003;29067;35.492;-97.520;2023-04-01T11:29:54;8;4;
43479;PMS5003;29067;35.492;-97.520;2023-04-01T11:32:43;11;9;
43479;PMS5003;29067;35.492;-97.520;2023-04-01T11:35:28;10;7;
43479;PMS5003;29067;35.492;-97.520;2023-04-01T11:38:13;14;10;
43479;PMS5003;29067;35.492;-97.520;2023-04-01T11:40:51;17;15;
43479;PMS5003;29067;35.492;-97.520;2023-04-01T11:43:29;5;2;
43479;PMS5003;29067;35.492;-97.520;2023-04-01T11:46:07;13;9;
43479;PMS5003;29067;35.492;-97.520;2023-04-01T11:48:42;13;9;
43479;PMS5003;29067;35.492;-97.520;2023-04-01T11:51:31;14;9;
43479;PMS5003;29067;35.492;-97.520;2023-04-01T11:54:15;30;26;
43479;PMS5003;29067;35.492;-97.520;2023-04-01T11:56:59;13;9;
43479;PMS5003;29067;35.492;-97.520;2023-04-01T11:59:50;37;33;
43479;PMS5003;29067;35.492;-97.520;2023-04-01T12:02:30;38;34;
43479;PMS5003;29067;35.492;-97.520;2023-04-01T12:05:16;78;75;
43479;PMS5003;29067;35.492;-97.520;2023-04-01T12:08:02;350;350;
43479;PMS5003;29067;35.492;-97.520;2023-04-01T12:10:44;329;328;
43479;PMS5003;29067;35.492;-97.520;2023-04-01T12:13:26;331;330;
43479;PMS5003;29067;35.492;-97.520;2023-04-01T12:16:07;306;304;
43479;PMS5003;29067;35.492;-97.520;2023-04-01T12:18:50;302;302;
43479;PMS5003;29067;35.492;-97.520;2023-04-01T12:21:32;281;280;
43479;PMS5003;29067;35.492;-97.520;2023-04-01T12:24:18;281;280;
43479;PMS5003;29067;35.492;-97.520;2023-04-01T12:27:04;220;217;
43479;PMS5003;29067;35.492;-97.520;2023-04-01T12:30:35;165;162;
43479;PMS5003;29067;35.492;-97.520;2023-04-01T12:33:16;69;61;
43479;PMS5003;29067;35.492;-97.520;2023-04-01T12:36:07;21;18;
43479;PMS5003;29067;35.492;-97.520;2023-04-01T12:38:55;55;49;
43479;PMS5003;29067;35.492;-97.520;2023-04-01T12:41:46;89;86;
43479;PMS5003;29067;35.492;-97.520;2023-04-01T12:44:29;120;117;
43479;PMS5003;29067;35.492;-97.520;2023-04-01T12:49:23;36;32;
43479;PMS5003;29067;35.492;-97.520;2023-04-01T12:53:11;42;37;
43479;PMS5003;29067;35.492;-97.520;2023-04-01T12:56:00;38;35;
43479;PMS5003;29067;35.492;-97.520;2023-04-01T12:58:56;32;29;
43479;PMS5003;29067;35.492;-97.520;2023-04-01T13:01:49;0;0;
43479;PMS5003;29067;35.492;-97.520;2023-04-01T13:04:32;0;0;
43479;PMS5003;29067;35.492;-97.520;2023-04-01T13:07:22;0;0;
43479;PMS5003;29067;35.492;-97.520;2023-04-01T13:10:06;0;0;
43479;PMS5003;29067;35.492;-97.520;2023-04-01T13:12:45;0;0;
43479;PMS5003;29067;35.492;-97.520;2023-04-01T13:15:37;0;0;
43479;PMS5003;29067;35.492;-97.520;2023-04-01T13:18:16;0;0;
43479;PMS5003;29067;35.492;-97.520;2023-04-01T13:20:54;1;0;
43479;PMS5003;29067;35.492;-97.520;2023-04-01T13:23:33;0;0;
43479;PMS5003;29067;35.492;-97.520;2023-04-01T13:26:12;0;0;
43479;PMS5003;29067;35.492;-97.520;2023-04-01T13:28:47;0;0;
43479;PMS5003;29067;35.492;-97.520;2023-04-01T13:31:31;1;0;
43479;PMS5003;29067;35.492;-97.520;2023-04-01T13:34:23;0;0;
43479;PMS5003;29067;35.492;-97.520;2023-04-01T13:37:06;0;0;
43479;PMS5003;29067;35.492;-97.520;2023-04-01T13:39:51;1;0;
43479;PMS5003;29067;35.492;-97.520;2023-04-01T13:42:33;0;0;
43479;PMS5003;29067;35.492;-97.520;2023-04-01T13:45:10;0;0;
43479;PMS5003;29067;35.492;-97.520;2023-04-01T13:47:49;0;0;
43479;PMS5003;29067;35.492;-97.520;2023-04-01T13:51:40;28;28;
43479;PMS5003;29067;35.492;-97.520;2023-04-01T13:54:25;17;17;
43479;PMS5003;29067;35.492;-97.520;2023-04-01T13:57:20;61;61;
43479;PMS5003;29067;35.492;-97.520;2023-04-01T14:00:04;28;28;
43479;PMS5003;29067;35.492;-97.520;2023-04-01T14:03:19;0;0;
43479;PMS5003;29067;35.492;-97.520;2023-04-01T14:06:02;0;0;
43479;PMS5003;29067;35.492;-97.520;2023-04-01T14:08:45;0;0;
43479;PMS5003;29067;35.492;-97.520;2023-04-01T14:11:30;1;0;
43479;PMS5003;29067;35.492;-97.520;2023-04-01T14:14:06;0;0;
43479;PMS5003;29067;35.492;-97.520;2023-04-01T14:17:18;0;0;
43479;PMS5003;29067;35.492;-97.520;2023-04-01T14:20:03;0;0;
43479;PMS5003;29067;35.492;-97.520;2023-04-01T14:22:51;0;0;
43479;PMS5003;29067;35.492;-97.520;2023-04-01T14:25:41;0;0;
43479;PMS5003;29067;35.492;-97.520;2023-04-01T14:28:22;0;0;
43479;PMS5003;29067;35.492;-97.520;2023-04-01T14:31:12;1;1;
43479;PMS5003;29067;35.492;-97.520;2023-04-01T14:33:53;1;1;
43479;PMS5003;29067;35.492;-97.520;2023-04-01T14:36:35;0;0;
43479;PMS5003;29067;35.492;-97.520;2023-04-01T14:39:26;0;0;
43479;PMS5003;29067;35.492;-97.520;2023-04-01T14:42:20;1;1;
43479;PMS5003;29067;35.492;-97.520;2023-04-01T14:45:02;42;42;
43479;PMS5003;29067;35.492;-97.520;2023-04-01T14:47:46;12;12;
43479;PMS5003;29067;35.492;-97.520;2023-04-01T14:50:17;4;4;
43479;PMS5003;29067;35.492;-97.520;2023-04-01T14:52:52;1;1;
43479;PMS5003;29067;35.492;-97.520;2023-04-01T14:55:28;1;1;
43479;PMS5003;29067;35.492;-97.520;2023-04-01T14:58:00;0;0;
43479;PMS5003;29067;35.492;-97.520;2023-04-01T15:00:47;1;1;
43479;PMS5003;29067;35.492;-97.520;2023-04-01T15:03:25;2;0;
43479;PMS5003;29067;35.492;-97.520;2023-04-01T15:06:05;0;0;
43479;PMS5003;29067;35.492;-97.520;2023-04-01T15:09:03;0;0;
43479;PMS5003;29067;35.492;-97.520;2023-04-01T15:11:47;0;0;
43479;PMS5003;29067;35.492;-97.520;2023-04-01T15:12:21;0;0;
43479;PMS5003;29067;35.492;-97.520;2023-04-01T15:14:59;0;0;
43479;PMS5003;29067;35.492;-97.520;2023-04-01T15:17:44;0;0;
43479;PMS5003;29067;35.492;-97.520;2023-04-01T15:20:31;0;0;
43479;PMS5003;29067;35.492;-97.520;2023-04-01T15:23:11;0;0;
43479;PMS5003;29067;35.492;-97.520;2023-04-01T15:25:51;0;0;
43479;PMS5003;29067;35.492;-97.520;2023-04-01T15:28:38;1;0;
43479;PMS5003;29067;35.492;-97.520;2023-04-01T15:31:15;2;2;
43479;PMS5003;29067;35.492;-97.520;2023-04-01T15:33:59;8;7;
43479;PMS5003;29067;35.492;-97.520;2023-04-01T15:36:44;8;8;
43479;PMS5003;29067;35.492;-97.520;2023-04-01T15:39:19;1;1;
43479;PMS5003;29067;35.492;-97.520;2023-04-01T15:42:04;0;0;
43479;PMS5003;29067;35.492;-97.520;2023-04-01T15:44:48;0;0;
43479;PMS5003;29067;35.492;-97.520;2023-04-01T15:47:32;0;0;
43479;PMS5003;29067;35.492;-97.520;2023-04-01T15:50:13;5;5;
43479;PMS5003;29067;35.492;-97.520;2023-04-01T15:53:24;5;5;
43479;PMS5003;29067;35.492;-97.520;2023-04-01T15:56:10;9;9;
43479;PMS5003;29067;35.492;-97.520;2023-04-01T15:58:49;9;9;
43479;PMS5003;29067;35.492;-97.520;2023-04-01T16:01:29;1;1;
43479;PMS5003;29067;35.492;-97.520;2023-04-01T16:04:13;1;0;
43479;PMS5003;29067;35.492;-97.520;2023-04-01T16:06:59;0;0;
43479;PMS5003;29067;35.492;-97.520;2023-04-01T16:09:40;0;0;
43479;PMS5003;29067;35.492;-97.520;2023-04-01T16:12:28;0;0;
43479;PMS5003;29067;35.492;-97.520;2023-04-01T16:15:12;1;0;
43479;PMS5003;29067;35.492;-97.520;2023-04-01T16:17:56;0;0;
43479;PMS5003;29067;35.492;-97.520;2023-04-01T16:20:42;0;0;
43479;PMS5003;29067;35.492;-97.520;2023-04-01T16:23:16;0;0;
43479;PMS5003;29067;35.492;-97.520;2023-04-01T16:25:52;0;0;
43479;PMS5003;29067;35.492;-97.520;2023-04-01T16:28:36;0;0;
43479;PMS5003;29067;35.492;-97.520;2023-04-01T16:31:10;0;0;
43479;PMS5003;29067;35.492;-97.520;2023-04-01T16:33:45;0;0;
43479;PMS5003;29067;35.492;-97.520;2023-04-01T16:36:26;0;0;
43479;PMS5003;29067;35.492;-97.520;2023-04-01T16:39:09;0;0;
43479;PMS5003;29067;35.492;-97.520;2023-04-01T16:41:49;0;0;
43479;PMS5003;29067;35.492;-97.520;2023-04-01T16:44:29;0;0;
43479;PMS5003;29067;35.492;-97.520;2023-04-01T16:46:58;0;0;
43479;PMS5003;29067;35.492;-97.520;2023-04-01T16:49:36;0;0;
43479;PMS5003;29067;35.492;-97.520;2023-04-01T16:52:13;0;0;
43479;PMS5003;29067;35.492;-97.520;2023-04-01T16:54:59;0;0;
43479;PMS5003;29067;35.492;-97.520;2023-04-01T16:57:43;1;0;
43479;PMS5003;29067;35.492;-97.520;2023-04-01T17:00:16;1;0;
43479;PMS5003;29067;35.492;-97.520;2023-04-01T17:02:54;0;0;
43479;PMS5003;29067;35.492;-97.520;2023-04-01T17:05:39;0;0;
43479;PMS5003;29067;35.492;-97.520;2023-04-01T17:08:17;0;0;
43479;PMS5003;29067;35.492;-97.520;2023-04-01T17:10:56;0;0;
43479;PMS5003;29067;35.492;-97.520;2023-04-01T17:13:37;0;0;
43479;PMS5003;29067;35.492;-97.520;2023-04-01T17:16:19;1;1;
43479;PMS5003;29067;35.492;-97.520;2023-04-01T17:18:58;0;0;
43479;PMS5003;29067;35.492;-97.520;2023-04-01T17:21:39;0;0;
43479;PMS5003;29067;35.492;-97.520;2023-04-01T17:24:21;0;0;
43479;PMS5003;29067;35.492;-97.520;2023-04-01T17:27:03;1;0;
43479;PMS5003;29067;35.492;-97.520;2023-04-01T17:29:56;1;0;
43479;PMS5003;29067;35.492;-97.520;2023-04-01T17:32:38;1;0;
43479;PMS5003;29067;35.492;-97.520;2023-04-01T17:35:15;1;0;
43479;PMS5003;29067;35.492;-97.520;2023-04-01T17:37:52;1;1;
43479;PMS5003;29067;35.492;-97.520;2023-04-01T17:40:33;0;0;
43479;PMS5003;29067;35.492;-97.520;2023-04-01T17:43:14;0;0;
43479;PMS5003;29067;35.492;-97.520;2023-04-01T17:45:49;1;1;